Time;durP1;ratioP1;P1;durP2;ratioP2;P2;SDS_P1;SDS_P2;PMS_P1;PMS_P2;Temp;Humidity;BMP_temperature;BMP_pressure;BME280_temperature;BME280_humidity;BME280_pressure;Samples;Min_cycle;Max_cycle;Signal;HPM_P1;HPM_P2
2021/05/11 00:02:23;;;;;;;;;;;13.70;99.90;;;;;;5074180;28;20286;-77
2021/05/11 00:04:49;;;;;;;;;;;13.70;99.90;;;;;;5075450;28;19905;-78
2021/05/11 00:07:14;;;;;;;;;;;13.70;99.90;;;;;;5074593;28;19905;-77
2021/05/11 00:09:40;;;;;;;;;;;13.70;99.90;;;;;;5075359;28;19937;-76
2021/05/11 00:12:06;;;;;;;;;;;13.60;99.90;;;;;;5074538;28;19904;-77
2021/05/11 00:14:31;;;;;;;;;;;13.60;99.90;;;;;;5074587;28;19912;-79
2021/05/11 00:16:56;;;;;;;;;;;13.70;99.90;;;;;;5075742;28;19909;-78
2021/05/11 00:19:22;;;;;;;;;;;13.70;99.90;;;;;;5076743;28;19904;-76
2021/05/11 00:21:47;;;;;;;;;;;13.70;99.90;;;;;;5073996;28;19904;-77
2021/05/11 00:24:16;;;;;;;;;;;13.70;99.90;;;;;;5075958;28;19904;-77
2021/05/11 00:26:41;;;;;;;;;;;13.70;99.90;;;;;;5074295;28;19939;-77
2021/05/11 00:29:07;;;;;;;;;;;13.70;99.90;;;;;;5076499;28;19915;-79
2021/05/11 00:31:33;;;;;;;;;;;13.60;99.90;;;;;;5075979;28;19907;-75
2021/05/11 00:33:58;;;;;;;;;;;13.60;99.90;;;;;;5075831;28;20003;-78
2021/05/11 00:36:24;;;;;;;;;;;13.60;99.90;;;;;;5074544;28;19912;-77
2021/05/11 00:38:49;;;;;;;;;;;13.60;99.90;;;;;;5076131;28;19904;-77
2021/05/11 00:41:15;;;;;;;;;;;13.50;99.90;;;;;;5075668;28;20418;-77
2021/05/11 00:43:41;;;;;;;;;;;13.50;99.90;;;;;;5075046;28;19904;-79
2021/05/11 00:46:07;;;;;;;;;;;13.50;99.90;;;;;;5074688;28;19926;-77
2021/05/11 00:48:32;;;;;;;;;;;13.50;99.90;;;;;;5075425;28;19905;-79
2021/05/11 00:50:58;;;;;;;;;;;13.60;99.90;;;;;;5075715;28;19904;-78
2021/05/11 00:53:23;;;;;;;;;;;13.60;99.90;;;;;;5078606;28;19990;-79
2021/05/11 00:55:49;;;;;;;;;;;13.50;99.90;;;;;;5075787;28;19915;-79
2021/05/11 00:58:14;;;;;;;;;;;13.50;99.90;;;;;;5075325;28;20350;-78
2021/05/11 01:00:40;;;;;;;;;;;13.50;99.90;;;;;;5073959;28;20328;-78
2021/05/11 01:03:05;;;;;;;;;;;13.50;99.90;;;;;;5075855;28;19905;-78
2021/05/11 01:05:31;;;;;;;;;;;13.50;99.90;;;;;;5072984;28;19928;-78
2021/05/11 01:07:56;;;;;;;;;;;13.50;99.90;;;;;;5073798;28;19927;-78
2021/05/11 01:10:22;;;;;;;;;;;13.50;99.90;;;;;;5073118;28;19904;-77
2021/05/11 01:12:47;;;;;;;;;;;13.60;99.90;;;;;;5073618;28;20302;-79
2021/05/11 01:15:13;;;;;;;;;;;13.50;99.90;;;;;;5073165;28;19912;-77
2021/05/11 01:17:40;;;;;;;;;;;13.60;99.90;;;;;;5073013;28;20287;-77
2021/05/11 01:20:13;;;;;;;;;;;13.60;99.90;;;;;;5073492;28;19951;-78
2021/05/11 01:23:02;;;;;;;;;;;13.60;99.90;;;;;;5074379;28;20008;-78
2021/05/11 01:25:30;;;;;;;;;;;13.60;99.90;;;;;;5074385;28;19908;-77
2021/05/11 01:28:13;;;;;;;;;;;13.60;99.90;;;;;;5074142;28;20337;-78
2021/05/11 01:43:55;;;;;;;;;;;13.60;99.90;;;;;;5073859;28;19926;-78
2021/05/11 01:47:25;;;;;;;;;;;13.40;99.90;;;;;;5077054;28;19904;-78
2021/05/11 01:50:08;;;;;;;;;;;13.40;99.90;;;;;;5074899;28;19947;-77
2021/05/11 02:25:04;;;;;;;;;;;13.50;99.90;;;;;;5076239;28;19950;-76
2021/05/11 02:27:29;;;;;;;;;;;13.40;99.90;;;;;;5076639;28;19904;-78
2021/05/11 02:29:55;;;;;;;;;;;13.30;99.90;;;;;;5075913;28;19969;-78
2021/05/11 02:32:20;;;;;;;;;;;13.30;99.90;;;;;;5076435;28;19904;-77
2021/05/11 02:34:46;;;;;;;;;;;13.30;99.90;;;;;;5074424;28;19918;-77
2021/05/11 02:37:11;;;;;;;;;;;13.40;99.90;;;;;;5075106;28;20393;-78
2021/05/11 02:39:38;;;;;;;;;;;13.40;99.90;;;;;;5074730;28;20270;-78
2021/05/11 02:42:04;;;;;;;;;;;13.40;99.90;;;;;;5074811;28;19911;-76
2021/05/11 02:44:36;;;;;;;;;;;13.30;99.90;;;;;;5076307;28;19912;-78
2021/05/11 02:47:02;;;;;;;;;;;13.30;99.90;;;;;;5074150;28;19904;-77
2021/05/11 02:49:27;;;;;;;;;;;13.20;99.90;;;;;;5075337;28;20029;-77
2021/05/11 02:51:53;;;;;;;;;;;13.30;99.90;;;;;;5075524;28;19905;-77
2021/05/11 02:54:18;;;;;;;;;;;13.30;99.90;;;;;;5073783;28;19961;-77
2021/05/11 02:56:44;;;;;;;;;;;13.20;99.90;;;;;;5074976;28;19912;-78
2021/05/11 02:59:09;;;;;;;;;;;13.30;99.90;;;;;;5073632;28;19904;-77
2021/05/11 03:01:35;;;;;;;;;;;13.20;99.90;;;;;;5074095;28;19904;-78
2021/05/11 03:04:00;;;;;;;;;;;13.20;99.90;;;;;;5075450;28;19904;-76
2021/05/11 03:06:26;;;;;;;;;;;13.20;99.90;;;;;;5075196;28;19904;-77
2021/05/11 03:08:51;;;;;;;;;;;13.20;99.90;;;;;;5073520;28;19904;-77
2021/05/11 03:11:17;;;;;;;;;;;13.20;99.90;;;;;;5074254;28;19911;-76
2021/05/11 03:13:42;;;;;;;;;;;13.20;99.90;;;;;;5073129;28;19911;-76
2021/05/11 03:16:08;;;;;;;;;;;13.20;99.90;;;;;;5075418;28;19931;-78
2021/05/11 03:18:33;;;;;;;;;;;13.20;99.90;;;;;;5073648;28;20022;-79
2021/05/11 03:20:59;;;;;;;;;;;13.20;99.90;;;;;;5073876;28;19904;-78
2021/05/11 03:23:24;;;;;;;;;;;13.10;99.90;;;;;;5073368;28;19961;-76
2021/05/11 03:25:50;;;;;;;;;;;13.20;99.90;;;;;;5074133;28;19948;-77
2021/05/11 03:28:15;;;;;;;;;;;13.20;99.90;;;;;;5072889;28;19962;-78
2021/05/11 03:30:42;;;;;;;;;;;13.20;99.90;;;;;;5073027;28;19950;-76
2021/05/11 03:33:08;;;;;;;;;;;13.10;99.90;;;;;;5073901;28;19927;-77
2021/05/11 03:35:33;;;;;;;;;;;13.10;99.90;;;;;;5074886;28;20456;-78
2021/05/11 03:37:59;;;;;;;;;;;13.10;99.90;;;;;;5074094;28;19911;-77
2021/05/11 03:40:25;;;;;;;;;;;13.10;99.90;;;;;;5073116;28;20267;-77
2021/05/11 03:43:00;;;;;;;;;;;13.10;99.90;;;;;;5074454;28;19914;-77
2021/05/11 03:45:32;;;;;;;;;;;13.00;99.90;;;;;;5075515;28;19904;-77
2021/05/11 03:47:58;;;;;;;;;;;13.10;99.90;;;;;;5074701;28;19912;-78
2021/05/11 03:50:23;;;;;;;;;;;13.00;99.90;;;;;;5074301;28;19905;-78
2021/05/11 03:52:48;;;;;;;;;;;13.00;99.90;;;;;;5075004;28;19905;-78
2021/05/11 03:55:14;;;;;;;;;;;12.90;99.90;;;;;;5074032;28;19930;-79
2021/05/11 03:57:39;;;;;;;;;;;12.80;99.90;;;;;;5073664;28;19908;-78
2021/05/11 04:00:05;;;;;;;;;;;12.80;99.90;;;;;;5073755;28;19995;-78
2021/05/11 04:02:31;;;;;;;;;;;12.60;99.90;;;;;;5073725;28;19904;-78
2021/05/11 04:04:56;;;;;;;;;;;12.60;99.90;;;;;;5072528;28;19904;-77
2021/05/11 04:07:22;;;;;;;;;;;12.60;99.90;;;;;;5072304;28;19904;-77
2021/05/11 04:09:56;;;;;;;;;;;12.50;99.90;;;;;;5073247;28;20275;-77
2021/05/11 04:17:40;;;;;;;;;;;12.40;99.90;;;;;;5073731;28;19915;-77
2021/05/11 04:20:06;;;;;;;;;;;12.30;99.90;;;;;;5072148;28;19911;-77
2021/05/11 04:22:31;;;;;;;;;;;12.30;99.90;;;;;;5072259;28;19908;-76
2021/05/11 04:24:56;;;;;;;;;;;12.40;99.90;;;;;;5072409;28;19911;-78
2021/05/11 04:27:22;;;;;;;;;;;12.50;99.90;;;;;;5072144;28;19910;-78
2021/05/11 04:29:50;;;;;;;;;;;12.50;99.90;;;;;;5073074;28;19959;-77
2021/05/11 04:32:16;;;;;;;;;;;12.70;99.90;;;;;;5073579;28;19904;-77
2021/05/11 04:34:41;;;;;;;;;;;12.80;99.90;;;;;;5073212;28;19912;-77
2021/05/11 04:37:07;;;;;;;;;;;12.90;99.90;;;;;;5073515;28;19982;-77
2021/05/11 04:39:32;;;;;;;;;;;13.00;99.90;;;;;;5071706;28;19912;-77
2021/05/11 04:41:58;;;;;;;;;;;13.10;99.90;;;;;;5073319;28;19905;-77
2021/05/11 04:44:27;;;;;;;;;;;13.10;99.90;;;;;;5072080;28;19905;-77
2021/05/11 04:49:42;;;;;;;;;;;13.00;99.90;;;;;;5063501;28;20037;-77
2021/05/11 04:52:07;;;;;;;;;;;13.00;99.90;;;;;;5078486;28;20381;-77
2021/05/11 04:54:33;;;;;;;;;;;13.10;99.90;;;;;;5087785;28;20328;-77
2021/05/11 04:56:58;;;;;;;;;;;13.20;99.90;;;;;;5092831;28;20390;-77
2021/05/11 04:59:24;;;;;;;;;;;13.40;99.90;;;;;;5091937;28;20355;-77
2021/05/11 05:01:52;;;;;;;;;;;13.60;99.90;;;;;;5091238;28;19904;-78
2021/05/11 05:04:17;;;;;;;;;;;13.80;99.90;;;;;;5092586;28;20440;-78
2021/05/11 05:06:43;;;;;;;;;;;14.00;99.90;;;;;;5092841;28;19904;-77
2021/05/11 05:09:11;;;;;;;;;;;14.00;99.90;;;;;;5095108;28;20173;-77
2021/05/11 05:11:40;;;;;;;;;;;13.80;99.90;;;;;;5097477;28;19942;-78
2021/05/11 05:14:06;;;;;;;;;;;13.70;99.90;;;;;;5097799;28;20290;-81
2021/05/11 05:16:33;;;;;;;;;;;13.60;99.90;;;;;;5095298;28;19907;-79
2021/05/11 05:18:58;;;;;;;;;;;13.60;99.90;;;;;;5078779;28;19908;-78
2021/05/11 05:21:23;;;;;;;;;;;13.60;99.90;;;;;;5076843;28;19905;-78
2021/05/11 05:23:59;;;;;;;;;;;13.70;99.90;;;;;;5076099;28;20497;-79
2021/05/11 05:26:27;;;;;;;;;;;13.70;99.90;;;;;;5084191;28;20439;-78
2021/05/11 05:28:53;;;;;;;;;;;13.80;99.90;;;;;;5097878;28;19908;-77
2021/05/11 05:31:18;;;;;;;;;;;13.90;99.90;;;;;;5094840;28;20238;-77
2021/05/11 05:33:44;;;;;;;;;;;13.90;99.90;;;;;;5096179;28;19914;-78
2021/05/11 05:36:09;;;;;;;;;;;13.90;99.90;;;;;;5094931;28;19916;-77
2021/05/11 05:38:36;;;;;;;;;;;13.90;99.90;;;;;;5094271;28;19970;-76
2021/05/11 05:41:09;;;;;;;;;;;13.90;99.90;;;;;;5094488;28;19915;-76
2021/05/11 05:43:34;;;;;;;;;;;14.00;99.90;;;;;;5084424;28;20283;-76
2021/05/11 05:46:00;;;;;;;;;;;13.80;99.90;;;;;;5073127;28;19908;-77
2021/05/11 05:48:25;;;;;;;;;;;14.00;99.90;;;;;;5075814;28;19912;-76
2021/05/11 05:50:57;;;;;;;;;;;14.20;99.90;;;;;;5077953;28;19911;-79
2021/05/11 05:53:27;;;;;;;;;;;14.30;99.90;;;;;;5089575;28;19908;-77
2021/05/11 05:55:53;;;;;;;;;;;14.30;99.90;;;;;;5097184;28;19915;-78
2021/05/11 05:58:18;;;;;;;;;;;14.30;99.90;;;;;;5096411;28;19926;-78
2021/05/11 06:00:45;;;;;;;;;;;14.30;99.90;;;;;;5097669;28;19908;-78
2021/05/11 06:06:07;;;;;;;;;;;14.40;99.90;;;;;;5080064;28;19950;-78
2021/05/11 06:08:33;;;;;;;;;;;14.30;99.90;;;;;;5095602;28;19908;-78
2021/05/11 06:11:15;;;;;;;;;;;14.40;99.90;;;;;;5094667;28;19910;-78
2021/05/11 06:13:52;;;;;;;;;;;14.30;99.90;;;;;;5094514;28;19986;-78
2021/05/11 06:19:01;;;;;;;;;;;14.10;99.90;;;;;;5098532;28;19911;-79
2021/05/11 06:21:27;;;;;;;;;;;14.10;99.90;;;;;;5096487;28;19904;-78
2021/05/11 06:23:52;;;;;;;;;;;14.10;99.90;;;;;;5097430;28;19903;-77
2021/05/11 06:26:18;;;;;;;;;;;14.10;99.90;;;;;;5095683;28;19930;-79
2021/05/11 06:28:45;;;;;;;;;;;14.20;99.90;;;;;;5095244;28;19960;-80
2021/05/11 06:31:10;;;;;;;;;;;14.20;99.90;;;;;;5099816;28;20282;-78
2021/05/11 06:33:36;;;;;;;;;;;14.10;99.90;;;;;;5098432;28;19911;-77
2021/05/11 06:36:02;;;;;;;;;;;14.20;99.90;;;;;;5096669;28;19912;-76
2021/05/11 06:38:28;;;;;;;;;;;14.10;99.90;;;;;;5097285;28;19953;-79
2021/05/11 06:40:54;;;;;;;;;;;14.10;99.90;;;;;;5095838;28;19904;-76
2021/05/11 06:43:28;;;;;;;;;;;14.10;99.90;;;;;;5100292;28;20037;-83
2021/05/11 06:46:12;;;;;;;;;;;14.30;99.90;;;;;;5097506;28;19904;-81
2021/05/11 06:48:48;;;;;;;;;;;14.20;99.90;;;;;;5098141;28;19957;-80
2021/05/11 06:53:40;;;;;;;;;;;14.10;99.90;;;;;;5096135;28;19951;-80
2021/05/11 06:56:06;;;;;;;;;;;14.00;99.90;;;;;;5095980;28;19908;-83
2021/05/11 06:58:32;;;;;;;;;;;14.10;99.90;;;;;;5096482;28;19904;-83
2021/05/11 07:00:57;;;;;;;;;;;14.10;99.90;;;;;;5094421;28;20113;-82
2021/05/11 07:03:23;;;;;;;;;;;14.20;99.90;;;;;;5094538;28;19904;-81
2021/05/11 07:05:51;;;;;;;;;;;14.20;99.90;;;;;;5096733;28;20347;-81
2021/05/11 07:08:23;;;;;;;;;;;14.20;99.90;;;;;;5096233;28;19904;-79
2021/05/11 07:10:52;;;;;;;;;;;14.20;99.90;;;;;;5102311;28;19923;-79
2021/05/11 07:13:18;;;;;;;;;;;14.30;99.90;;;;;;5097328;28;19971;-78
2021/05/11 07:15:44;;;;;;;;;;;14.40;99.90;;;;;;5086508;28;20371;-77
2021/05/11 07:18:11;;;;;;;;;;;14.60;99.90;;;;;;5095065;28;20385;-78
2021/05/11 07:20:37;;;;;;;;;;;14.80;99.90;;;;;;5084442;28;19931;-78
2021/05/11 07:23:03;;;;;;;;;;;14.90;99.90;;;;;;5095683;28;19922;-77
2021/05/11 07:25:34;;;;;;;;;;;15.00;99.90;;;;;;5094715;28;19943;-78
2021/05/11 07:30:35;;;;;;;;;;;15.30;99.90;;;;;;5092177;28;19946;-79
2021/05/11 07:33:00;;;;;;;;;;;15.20;99.90;;;;;;5101246;28;19904;-79
2021/05/11 07:35:26;;;;;;;;;;;15.30;99.90;;;;;;5098966;28;19911;-79
2021/05/11 07:37:51;;;;;;;;;;;15.10;99.90;;;;;;5099645;28;19930;-79
2021/05/11 07:40:17;;;;;;;;;;;15.00;99.90;;;;;;5098500;28;20334;-78
2021/05/11 07:42:42;;;;;;;;;;;15.00;99.90;;;;;;5099513;28;19904;-79
2021/05/11 07:45:10;;;;;;;;;;;14.80;99.90;;;;;;5101140;28;19986;-79
2021/05/11 08:04:02;;;;;;;1.27;1.02;;;16.70;99.90;;;;;;5104818;28;20287;-80
2021/05/11 08:14:31;;;;;;;1.73;1.50;;;16.90;99.90;;;;;;5105961;28;20494;-78
2021/05/11 08:16:59;;;;;;;2.15;1.48;;;17.70;99.90;;;;;;5105545;28;20458;-77
2021/05/11 08:27:33;;;;;;;0.73;0.73;;;23.00;99.90;;;;;;5084439;28;20054;-78
2021/05/11 08:29:59;;;;;;;1.08;0.80;;;23.30;99.90;;;;;;5087413;28;20074;-78
2021/05/11 08:32:24;;;;;;;1.33;0.70;;;22.40;99.90;;;;;;5085589;28;20024;-79
2021/05/11 08:34:50;;;;;;;0.80;0.80;;;21.20;99.90;;;;;;5084362;28;20024;-79
2021/05/11 08:37:16;;;;;;;0.88;0.75;;;19.90;99.90;;;;;;5085518;28;20433;-79
2021/05/11 08:39:45;;;;;;;0.95;0.88;;;19.50;99.90;;;;;;5082855;28;20021;-80
2021/05/11 08:42:11;;;;;;;0.47;0.47;;;19.40;99.90;;;;;;5087823;28;20024;-79
2021/05/11 08:44:37;;;;;;;0.77;0.75;;;19.30;99.90;;;;;;5085761;28;20029;-78
2021/05/11 08:47:04;;;;;;;0.80;0.80;;;19.20;99.90;;;;;;5088394;28;20029;-80
2021/05/11 08:49:30;;;;;;;0.85;0.82;;;19.10;99.90;;;;;;5079952;28;20025;-80
2021/05/11 08:52:01;;;;;;;1.08;0.98;;;18.70;99.90;;;;;;5082689;28;20028;-80
2021/05/11 08:54:44;;;;;;;1.00;0.85;;;18.70;99.90;;;;;;5085373;28;20447;-78
2021/05/11 09:04:35;;;;;;;0.80;0.80;;;18.50;99.90;;;;;;5081815;28;20036;-79
2021/05/11 09:06:51;;;;;;;1.33;0.93;;;19.10;99.90;;;;;;5039276;28;20035;-77
2021/05/11 09:28:46;;;;;;;;;;;17.60;99.90;;;;;;5085923;28;19908;-79
2021/05/11 09:32:01;;;;;;;;;;;18.30;99.90;;;;;;5086237;28;19904;-78
2021/05/11 10:13:51;;;;;;;;;;;17.40;99.90;;;;;;5086636;28;20310;-78
2021/05/11 10:47:00;;;;;;;;;;;17.90;99.90;;;;;;5085922;28;19905;-77
2021/05/11 10:49:36;;;;;;;;;;;17.60;99.90;;;;;;5083614;28;19904;-77
2021/05/11 10:52:03;;;;;;;;;;;17.80;99.90;;;;;;5075012;28;20442;-76
2021/05/11 10:54:36;;;;;;;;;;;17.80;99.90;;;;;;5078421;28;19916;-76
2021/05/11 10:57:03;;;;;;;;;;;17.40;99.90;;;;;;5094327;28;19915;-76
2021/05/11 10:59:58;;;;;;;;;;;16.90;99.90;;;;;;5093413;28;19914;-76
2021/05/11 11:02:36;;;;;;;;;;;17.10;99.90;;;;;;5092778;28;20092;-78
2021/05/11 11:05:03;;;;;;;;;;;17.30;99.90;;;;;;5090236;28;19912;-76
2021/05/11 11:07:33;;;;;;;;;;;17.50;99.90;;;;;;5072731;28;20390;-74
2021/05/11 11:10:00;;;;;;;;;;;17.60;99.90;;;;;;5091462;28;20294;-77
2021/05/11 11:12:34;;;;;;;;;;;17.70;99.90;;;;;;5075821;28;19908;-78
2021/05/11 11:15:02;;;;;;;;;;;17.70;99.90;;;;;;5075811;28;19909;-78
2021/05/11 11:17:27;;;;;;;1.10;1.03;;;17.80;99.90;;;;;;5075222;28;20307;-77
2021/05/11 11:19:56;;;;;;;1.52;1.27;;;18.00;99.90;;;;;;5081495;28;20104;-77
2021/05/11 11:25:06;;;;;;;;;;;17.80;99.90;;;;;;5096338;28;19950;-77
2021/05/11 11:27:32;;;;;;;;;;;17.70;99.90;;;;;;5095007;28;19908;-77
2021/05/11 11:30:03;;;;;;;;;;;17.50;99.90;;;;;;5096002;28;19904;-77
2021/05/11 11:32:29;;;;;;;;;;;17.60;99.90;;;;;;5096883;28;19910;-77
2021/05/11 11:34:55;;;;;;;;;;;17.70;99.90;;;;;;5095170;28;20031;-77
2021/05/11 11:37:23;;;;;;;;;;;17.80;99.90;;;;;;5094924;28;19991;-77
2021/05/11 11:39:50;;;;;;;;;;;17.90;99.90;;;;;;5095205;28;20396;-77
2021/05/11 11:42:22;;;;;;;;;;;17.60;99.90;;;;;;5095129;28;20394;-78
2021/05/11 11:44:56;;;;;;;;;;;17.30;99.90;;;;;;5096279;28;19904;-77
2021/05/11 11:47:23;;;;;;;;;;;16.80;99.90;;;;;;5096150;28;19911;-77
2021/05/11 11:49:51;;;;;;;;;;;16.60;99.90;;;;;;5095629;28;19994;-77
2021/05/11 12:00:09;;;;;;;;;;;16.00;99.90;;;;;;5094842;28;19911;-76
2021/05/11 12:02:35;;;;;;;;;;;15.90;99.90;;;;;;5094830;28;19908;-77
2021/05/11 12:05:13;;;;;;;;;;;15.90;99.90;;;;;;5094289;28;19908;-77
2021/05/11 12:08:25;;;;;;;;;;;15.80;99.90;;;;;;5092968;28;19926;-77
2021/05/11 12:10:26;;;;;;;;;;;15.70;99.90;;;;;;5086845;28;19992;-77
2021/05/11 12:12:51;;;;;;;;;;;15.60;99.90;;;;;;5094860;28;19917;-77
2021/05/11 12:15:21;;;;;;;;;;;15.50;99.90;;;;;;5094240;28;19915;-77
2021/05/11 12:18:01;;;;;;;;;;;15.40;99.90;;;;;;5092880;28;20144;-77
2021/05/11 12:20:27;;;;;;;;;;;15.30;99.90;;;;;;5080902;28;19904;-77
2021/05/11 12:23:05;;;;;;;;;;;15.20;99.90;;;;;;5077142;28;19972;-77
2021/05/11 12:25:31;;;;;;;;;;;15.10;99.90;;;;;;5073568;28;20016;-77
2021/05/11 12:27:57;;;;;;;;;;;15.10;99.90;;;;;;5072959;28;19955;-77
2021/05/11 12:30:38;;;;;;;;;;;15.20;99.90;;;;;;5074156;28;19904;-76
2021/05/11 12:33:04;;;;;;;;;;;15.10;99.90;;;;;;5072614;28;20332;-77
2021/05/11 12:35:30;;;;;;;;;;;15.20;99.90;;;;;;5074872;28;19913;-77
2021/05/11 12:37:58;;;;;;;;;;;15.20;99.90;;;;;;5073951;28;20450;-77
2021/05/11 12:40:31;;;;;;;;;;;15.20;99.90;;;;;;5073221;28;21399;-77
2021/05/11 12:42:57;;;;;;;;;;;15.40;99.90;;;;;;5072194;28;19909;-77
2021/05/11 12:45:23;;;;;;;;;;;15.40;99.90;;;;;;5073229;28;19909;-77
2021/05/11 12:47:52;;;;;;;;;;;15.50;99.90;;;;;;5072707;28;19915;-77
2021/05/11 12:50:23;;;;;;;;;;;15.50;99.90;;;;;;5072409;28;19908;-79
2021/05/11 12:52:50;;;;;;;;;;;15.60;99.90;;;;;;5077154;28;19958;-80
2021/05/11 12:55:35;;;;;;;;;;;15.70;99.90;;;;;;5076472;28;19913;-79
2021/05/11 12:58:21;;;;;;;;;;;15.90;99.90;;;;;;5076507;28;19939;-80
2021/05/11 13:00:48;;;;;;;;;;;15.80;99.90;;;;;;5078585;28;19912;-79
2021/05/11 13:03:36;;;;;;;;;;;15.80;99.90;;;;;;5075871;28;20019;-80
2021/05/11 13:16:56;;;;;;;0.95;0.70;;;15.70;99.90;;;;;;5072917;28;20029;-78
2021/05/11 13:22:27;;;;;;;;;;;15.80;99.90;;;;;;5073174;28;20003;-78
2021/05/11 13:27:45;;;;;;;;;;;15.20;99.90;;;;;;5072974;28;20322;-78
2021/05/11 13:31:01;;;;;;;;;;;15.20;99.90;;;;;;5073255;28;19968;-79
2021/05/11 13:33:25;;;;;;;;;;;15.30;99.90;;;;;;5069253;28;20244;-78
2021/05/11 13:35:42;;;;;;;;;;;15.30;99.90;;;;;;5075856;28;20334;-81
2021/05/11 13:38:08;;;;;;;;;;;15.50;99.90;;;;;;5076699;28;19971;-78
2021/05/11 13:40:33;;;;;;;;;;;15.50;99.90;;;;;;5074821;28;20396;-78
2021/05/11 13:42:59;;;;;;;;;;;15.60;99.90;;;;;;5074934;28;19964;-79
2021/05/11 13:45:25;;;;;;;;;;;15.60;99.90;;;;;;5075267;28;20002;-78
2021/05/11 13:48:03;;;;;;;;;;;15.70;99.90;;;;;;5074873;28;19904;-78
2021/05/11 13:51:17;;;;;;;;;;;15.90;99.90;;;;;;5075374;28;19904;-80
2021/05/11 13:53:15;;;;;;;;;;;15.90;99.90;;;;;;5068795;28;20387;-77
2021/05/11 14:03:49;;;;;;;;;;;16.40;99.90;;;;;;5076147;28;19971;-80
2021/05/11 14:06:15;;;;;;;;;;;16.40;99.90;;;;;;5074601;28;20006;-79
2021/05/11 14:08:40;;;;;;;;;;;16.50;99.90;;;;;;5074268;28;19904;-78
2021/05/11 14:11:06;;;;;;;;;;;16.60;99.90;;;;;;5075162;28;19947;-79
2021/05/11 14:13:31;;;;;;;;;;;16.50;99.90;;;;;;5074446;28;20347;-78
2021/05/11 14:15:57;;;;;;;;;;;16.40;99.90;;;;;;5075361;28;20070;-79
2021/05/11 14:18:22;;;;;;;;;;;16.30;99.90;;;;;;5073958;28;19971;-80
2021/05/11 14:20:47;;;;;;;;;;;16.20;99.90;;;;;;5074082;28;19911;-80
2021/05/11 14:23:13;;;;;;;;;;;16.10;99.90;;;;;;5074044;28;19905;-77
2021/05/11 14:25:38;;;;;;;;;;;16.00;99.90;;;;;;5079440;28;19999;-79
2021/05/11 14:28:04;;;;;;;;;;;16.00;99.90;;;;;;5073849;28;19997;-81
2021/05/11 14:30:29;;;;;;;;;;;16.00;99.90;;;;;;5074877;28;20334;-77
2021/05/11 14:32:55;;;;;;;;;;;15.90;99.90;;;;;;5074851;28;19904;-82
2021/05/11 14:35:20;;;;;;;;;;;15.90;99.90;;;;;;5073953;28;19938;-79
2021/05/11 14:37:45;;;;;;;;;;;15.80;99.90;;;;;;5074170;28;19908;-79
2021/05/11 14:40:11;;;;;;;;;;;15.70;99.90;;;;;;5073926;28;20368;-78
2021/05/11 14:42:37;;;;;;;;;;;15.70;99.90;;;;;;5073529;28;19904;-78
2021/05/11 14:45:04;;;;;;;;;;;15.70;99.90;;;;;;5073154;28;19954;-79
2021/05/11 14:47:29;;;;;;;;;;;15.70;99.90;;;;;;5078670;28;19958;-78
2021/05/11 14:49:55;;;;;;;;;;;15.70;99.90;;;;;;5086204;28;19917;-81
2021/05/11 14:52:20;;;;;;;;;;;15.70;99.90;;;;;;5076337;28;19904;-80
2021/05/11 14:54:46;;;;;;;;;;;15.60;99.90;;;;;;5089239;28;20002;-79
2021/05/11 14:57:11;;;;;;;;;;;15.70;99.90;;;;;;5080268;28;19912;-80
2021/05/11 14:59:37;;;;;;;;;;;15.70;99.90;;;;;;5073607;28;19905;-80
2021/05/11 15:02:04;;;;;;;;;;;15.80;99.90;;;;;;5073672;28;20372;-79
2021/05/11 15:04:29;;;;;;;;;;;15.80;99.90;;;;;;5075188;28;19912;-78
2021/05/11 15:06:55;;;;;;;;;;;15.80;99.90;;;;;;5073062;28;19908;-80
2021/05/11 15:09:20;;;;;;;;;;;15.90;99.90;;;;;;5074133;28;19904;-77
2021/05/11 15:11:46;;;;;;;;;;;16.00;99.90;;;;;;5073426;28;20428;-78
2021/05/11 15:14:12;;;;;;;;;;;16.00;99.90;;;;;;5073488;28;19912;-80
2021/05/11 15:16:39;;;;;;;;;;;16.10;99.90;;;;;;5074789;28;19939;-78
2021/05/11 15:19:06;;;;;;;1.63;1.40;;;16.10;99.90;;;;;;5074772;28;19912;-80
2021/05/11 15:21:33;;;;;;;2.67;1.75;;;16.20;99.90;;;;;;5074742;28;20033;-80
2021/05/11 15:23:59;;;;;;;;;;;16.20;99.90;;;;;;5074123;28;20025;-79
2021/05/11 15:26:30;;;;;;;4.10;2.10;;;16.00;99.90;;;;;;5074378;28;20092;-78
2021/05/11 15:28:56;;;;;;;;;;;15.80;99.90;;;;;;5072062;28;20421;-79
2021/05/11 15:31:21;;;;;;;;;;;15.70;99.90;;;;;;5078998;28;19916;-79
2021/05/11 15:33:46;;;;;;;;;;;15.70;99.90;;;;;;5081513;28;19947;-78
2021/05/11 15:36:12;;;;;;;;;;;15.70;99.90;;;;;;5078470;28;19913;-79
2021/05/11 15:38:37;;;;;;;;;;;15.60;99.90;;;;;;5073207;28;20374;-81
2021/05/11 15:41:03;;;;;;;;;;;15.60;99.90;;;;;;5073538;28;20391;-79
2021/05/11 15:43:28;;;;;;;3.08;0.80;;;15.50;99.90;;;;;;5073399;28;19912;-80
2021/05/11 15:45:54;;;;;;;0.88;0.88;;;15.40;99.90;;;;;;5072565;28;20032;-81
2021/05/11 15:48:20;;;;;;;0.63;0.63;;;15.40;99.90;;;;;;5072367;28;20068;-81
2021/05/11 15:50:46;;;;;;;;;;;15.40;99.90;;;;;;5074421;28;20099;-81
2021/05/11 15:53:16;;;;;;;;;;;15.30;99.90;;;;;;5073137;28;20274;-82
2021/05/11 15:55:42;;;;;;;;;;;15.30;99.90;;;;;;5074480;28;19908;-81
2021/05/11 15:58:09;;;;;;;;;;;15.10;99.90;;;;;;5072910;28;19908;-81
2021/05/11 16:00:35;;;;;;;;;;;15.20;99.90;;;;;;5072644;28;20394;-81
2021/05/11 16:03:03;;;;;;;;;;;15.10;99.90;;;;;;5072264;28;19911;-82
2021/05/11 16:05:29;;;;;;;;;;;15.10;99.90;;;;;;5073286;28;20316;-81
2021/05/11 16:07:55;;;;;;;;;;;15.00;99.90;;;;;;5073446;28;20551;-80
2021/05/11 16:10:20;;;;;;;;;;;15.00;99.90;;;;;;5071782;28;19905;-82
2021/05/11 16:12:46;;;;;;;;;;;15.00;99.90;;;;;;5072465;28;19912;-81
2021/05/11 16:15:13;;;;;;;;;;;14.90;99.90;;;;;;5073267;28;19908;-80
2021/05/11 16:17:38;;;;;;;;;;;14.90;99.90;;;;;;5073243;28;19909;-81
2021/05/11 16:20:05;;;;;;;;;;;14.80;99.90;;;;;;5073433;28;20370;-79
2021/05/11 16:22:30;;;;;;;;;;;14.70;99.90;;;;;;5072699;28;19915;-80
2021/05/11 16:24:56;;;;;;;;;;;14.60;99.90;;;;;;5073434;28;19904;-81
2021/05/11 16:27:22;;;;;;;;;;;14.60;99.90;;;;;;5073159;28;20355;-82
2021/05/11 16:29:47;;;;;;;;;;;14.60;99.90;;;;;;5072344;28;19904;-82
2021/05/11 16:32:12;;;;;;;;;;;14.60;99.90;;;;;;5072016;28;19904;-81
2021/05/11 16:34:39;;;;;;;;;;;14.60;99.90;;;;;;5073412;28;19912;-81
2021/05/11 16:37:06;;;;;;;;;;;14.60;99.90;;;;;;5072033;28;20299;-82
2021/05/11 16:39:31;;;;;;;;;;;14.50;99.90;;;;;;5071534;28;19940;-81
2021/05/11 16:41:56;;;;;;;;;;;14.50;99.90;;;;;;5072257;28;19904;-81
2021/05/11 16:44:23;;;;;;;;;;;14.50;99.90;;;;;;5073575;28;19910;-81
2021/05/11 16:46:48;;;;;;;;;;;14.60;99.90;;;;;;5071770;28;19951;-81
2021/05/11 16:49:13;;;;;;;;;;;14.70;99.90;;;;;;5070769;28;19956;-82
2021/05/11 16:51:39;;;;;;;;;;;14.60;99.90;;;;;;5071118;28;19905;-79
2021/05/11 16:54:05;;;;;;;;;;;14.60;99.90;;;;;;5071233;28;19908;-82
2021/05/11 16:56:30;;;;;;;;;;;14.60;99.90;;;;;;5071037;28;19962;-81
2021/05/11 16:58:55;;;;;;;;;;;14.60;99.90;;;;;;5071854;28;19905;-83
2021/05/11 17:01:21;;;;;;;;;;;14.60;99.90;;;;;;5071951;28;19905;-78
2021/05/11 17:03:47;;;;;;;;;;;14.60;99.90;;;;;;5071691;28;20351;-81
2021/05/11 17:06:12;;;;;;;;;;;14.60;99.90;;;;;;5076801;28;19954;-79
2021/05/11 17:08:38;;;;;;;;;;;14.50;99.90;;;;;;5074793;28;20003;-82
2021/05/11 17:11:03;;;;;;;;;;;14.50;99.90;;;;;;5075904;28;19930;-81
2021/05/11 17:13:29;;;;;;;;;;;14.50;99.90;;;;;;5088245;28;20010;-80
2021/05/11 17:15:55;;;;;;;;;;;14.40;99.90;;;;;;5095211;28;19954;-81
2021/05/11 17:18:21;;;;;;;;;;;14.30;99.90;;;;;;5095113;28;19990;-81
2021/05/11 17:20:47;;;;;;;;;;;14.30;99.90;;;;;;5096773;28;19951;-80
2021/05/11 17:23:12;;;;;;;;;;;14.30;99.90;;;;;;5095154;28;19907;-81
2021/05/11 17:25:42;;;;;;;;;;;14.40;99.90;;;;;;5096719;28;19904;-81
2021/05/11 17:28:07;;;;;;;;;;;14.30;99.90;;;;;;5096724;28;19904;-80
2021/05/11 17:30:33;;;;;;;;;;;14.30;99.90;;;;;;5094717;28;20286;-82
2021/05/11 17:32:59;;;;;;;;;;;14.30;99.90;;;;;;5095443;28;20363;-81
2021/05/11 17:35:24;;;;;;;;;;;14.30;99.90;;;;;;5097255;28;19944;-81
2021/05/11 17:37:50;;;;;;;;;;;14.20;99.90;;;;;;5096909;28;20338;-81
2021/05/11 17:40:17;;;;;;;;;;;14.20;99.90;;;;;;5094967;28;19908;-80
2021/05/11 17:42:43;;;;;;;;;;;14.20;99.90;;;;;;5095837;28;19904;-81
2021/05/11 17:45:09;;;;;;;;;;;14.10;99.90;;;;;;5094906;28;20396;-83
2021/05/11 17:47:35;;;;;;;;;;;14.10;99.90;;;;;;5094637;28;19904;-81
2021/05/11 17:50:00;;;;;;;;;;;14.00;99.90;;;;;;5094123;28;20419;-81
2021/05/11 17:52:26;;;;;;;;;;;14.00;99.90;;;;;;5094442;28;19950;-80
2021/05/11 17:54:51;;;;;;;;;;;14.00;99.90;;;;;;5094548;28;19904;-80
2021/05/11 17:57:17;;;;;;;;;;;14.00;99.90;;;;;;5094871;28;19961;-81
2021/05/11 17:59:42;;;;;;;;;;;13.90;99.90;;;;;;5094112;28;19965;-80
2021/05/11 18:02:11;;;;;;;;;;;14.00;99.90;;;;;;5094792;28;20267;-80